Overview Statistics Trail Chart Weather Telemetry Raw packets
 

This is the latest recevied weather packets stored in our database for station/object AI5BL. If no packets are shown the sender has not sent any weather packets the latest 10 day(s).

<< 53 54 55 56 57 58 59 >>
Time Temp. Humidity Pressure Rain* Wind** Luminosity Snow
1788296365 35° C 50% 1018.1 hPa 0 mm - 98 W/m² -
1788296059 35.56° C 49% 1018.1 hPa 0 mm - 90 W/m² -
1788295754 35° C 48% 1018.1 hPa 0 mm - 98 W/m² -
1788295451 35° C 56% 1018.2 hPa 0 mm - 130 W/m² -
1788295150 35.56° C 50% 1018.2 hPa 0 mm - 103 W/m² -
1788294850 35.56° C 49% 1018.2 hPa 0 mm - 115 W/m² -
1788294546 35° C 49% 1018.2 hPa 0 mm - 106 W/m² -
1788294241 35° C 49% 1018.4 hPa 0 mm - 93 W/m² -
1788293937 35° C 49% 1018.3 hPa 0 mm - 154 W/m² -
1788293636 35° C 48% 1018.5 hPa 0 mm - 141 W/m² -
1788293335 35° C 50% 1018.5 hPa 0 mm - 272 W/m² -
1788293032 34.44° C 50% 1018.5 hPa 0 mm - 483 W/m² -
1788292730 35° C 49% 1018.6 hPa 0 mm - 78 W/m² -
1788292428 35° C 51% 1018.6 hPa 0 mm - 91 W/m² -
1788292125 35° C 52% 1018.6 hPa 0 mm - 116 W/m² -
1788291824 35° C 49% 1018.7 hPa 0 mm - 163 W/m² -
1788291540 34.44° C 57% 1018.7 hPa 0 mm - 168 W/m² -
1788291219 35° C 51% 1018.9 hPa 0 mm - 96 W/m² -
1788290914 33.89° C 52% 1019 hPa 0 mm - 746 W/m² -
1788290610 34.44° C 52% 1018.8 hPa 0 mm - 470 W/m² -
1788290306 35.56° C 48% 1019.2 hPa 0 mm - 110 W/m² -
1788290001 36.11° C 49% 1019.2 hPa 0 mm - 216 W/m² -
1788289698 35.56° C 51% 1019.1 hPa 0 mm - 810 W/m² -
1788289397 35° C 50% 1019.3 hPa 0 mm - 806 W/m² -
1788289095 35° C 51% 1019.5 hPa 0 mm - 668 W/m² -

* Rain latest hour (hover to see other rain measurements)
** Current wind speed in m/s (hover to see current wind gust speed)